Kaiser — NHJK — position and weather

sailwx.info

Track history (hours):
 
Tides and Currents Weather Stations Pressure Air Temp Water Temp Dewpoint Dewpoint Depression Visibility Wind Speed Wind Dir Waves Ship Positions

Kaiser

Last reported at 2015-Aug-31 21:33 UTC. Time now 2015-Aug-31 21:51 UTC.
Position N 32°37' W 117°18'.

Length 207 m; draft 8.5 m.

Type: Tanker. MMSI: 303849000.

Date/timePositionNaut miles runAvg speedWind from/ knotsBaromVisibWave heightAir tempDewpointWater temp
2015-Aug-31 21:33N 32°37' W 117°18'4 3.7
2015-Aug-31 20:32N 32°33' W 117°18'1 0.5
2015-Aug-31 19:33N 32°34' W 117°18'7 6.8
2015-Aug-31 18:33N 32°34' W 117°26'10 9.7
2015-Aug-31 17:33N 32°35' W 117°15'8 8.5
2015-Aug-31 16:33N 32°43' W 117°12'1 0.9
2015-Aug-31 15:32N 32°42' W 117°11'0 0.0
2015-Aug-31 14:32N 32°42' W 117°11'0 0.0
2015-Aug-31 13:32N 32°42' W 117°11'0 0.0
2015-Aug-31 12:32N 32°42' W 117°11'0 0.0
2015-Aug-31 11:32N 32°42' W 117°11'0 0.0
2015-Aug-31 10:32N 32°42' W 117°11'0 0.0
2015-Aug-31 09:32N 32°42' W 117°11'0 0.0
2015-Aug-31 08:32N 32°42' W 117°11'0 0.0
2015-Aug-31 07:29N 32°42' W 117°11'0 0.0
2015-Aug-31 06:32N 32°42' W 117°11'0 0.0
2015-Aug-31 05:32N 32°42' W 117°11'0 0.0
2015-Aug-31 04:32N 32°42' W 117°11'0 0.0
2015-Aug-31 02:32N 32°42' W 117°11'0 0.0
2015-Aug-30 22:32N 32°42' W 117°11'0 0.0
2015-Aug-30 21:14N 32°42' W 117°11'0 0.0
2015-Aug-30 16:29N 32°42' W 117°11'0 0.0
2015-Aug-30 15:32N 32°42' W 117°11'0 0.0
2015-Aug-30 14:32N 32°42' W 117°11'0 0.0
2015-Aug-30 13:32N 32°42' W 117°11'0 0.0
2015-Aug-30 12:32N 32°42' W 117°11'0 0.0
2015-Aug-30 11:32N 32°42' W 117°11'0 0.0
2015-Aug-30 10:29N 32°42' W 117°11'0 0.0
2015-Aug-30 09:32N 32°42' W 117°11'0 0.0
2015-Aug-30 08:32N 32°42' W 117°11'0 0.0
2015-Aug-30 07:32N 32°42' W 117°11'0 0.0
2015-Aug-29 12:32N 32°42' W 117°11'2 0.1
2015-Aug-29 00:33N 32°43' W 117°13'1 1.1
2015-Aug-28 23:26N 32°42' W 117°14'0 0.0
2015-Aug-28 22:32N 32°42' W 117°14'0 0.0
2015-Aug-28 21:32N 32°42' W 117°14'0 0.0
2015-Aug-28 20:32N 32°42' W 117°14'0 0.0
2015-Aug-28 19:32N 32°42' W 117°14'0 0.0
2015-Aug-28 18:33N 32°42' W 117°14'0 0.0
2015-Aug-28 17:32N 32°42' W 117°14'0 0.0
2015-Aug-28 16:20N 32°42' W 117°14'0 0.0
2015-Aug-28 15:32N 32°42' W 117°14'0 0.0
2015-Aug-28 14:32N 32°42' W 117°14'0 0.0
2015-Aug-28 13:33N 32°42' W 117°14'0 0.0
2015-Aug-28 12:32N 32°42' W 117°14'0 0.0
2015-Aug-28 11:32N 32°42' W 117°14'0 0.0
2015-Aug-28 10:32N 32°42' W 117°14'0 0.0
2015-Aug-28 09:32N 32°42' W 117°14'0 0.0
2015-Aug-28 08:26N 32°42' W 117°14'0 0.0
2015-Aug-28 07:17N 32°42' W 117°14'0 0.0
2015-Aug-28 06:15N 32°42' W 117°14'0 0.0
2015-Aug-28 05:32N 32°42' W 117°14'0 0.0
2015-Aug-28 04:32N 32°42' W 117°14'0 0.0
2015-Aug-28 03:33N 32°42' W 117°14'0 0.0
2015-Aug-28 02:32N 32°42' W 117°14'0 0.0
2015-Aug-28 01:32N 32°42' W 117°14'0 0.0
2015-Aug-28 00:33N 32°42' W 117°14'0 0.0
2015-Aug-27 23:33N 32°42' W 117°14'6 6.1
2015-Aug-27 22:33N 32°36' W 117°13'10 9.8
2015-Aug-27 21:33N 32°32' W 117°23'6 6.3
2015-Aug-27 20:34N 32°30' W 117°31'7 7.3
2015-Aug-27 19:34N 32°34' W 117°37'9 9.1
2015-Aug-27 18:33N 32°36' W 117°48'1212.0
2015-Aug-27 17:33N 32°36' W 118°02'1515.5
2015-Aug-27 16:33N 32°36' W 118°20'1413.4
2015-Aug-27 15:32N 32°36' W 118°37'1313.3
2015-Aug-27 14:33N 32°37' W 118°52'4 3.3
2015-Aug-27 13:29N 32°36' W 118°56'8 8.5
2015-Aug-27 12:33N 32°36' W 118°47'9 8.8
2015-Aug-27 11:33N 32°37' W 118°37'1 0.6
2015-Aug-27 10:33N 32°36' W 118°36'9 9.0
2015-Aug-27 09:33N 32°36' W 118°47'9 8.9
2015-Aug-27 08:33N 32°36' W 118°57'3 2.8
2015-Aug-27 07:33N 32°36' W 118°54'9 9.3
2015-Aug-27 06:33N 32°36' W 118°43'9 8.9
2015-Aug-27 05:33N 32°36' W 118°32'3 3.2
2015-Aug-27 04:33N 32°36' W 118°29'9 9.4
2015-Aug-27 03:33N 32°36' W 118°40'9 9.3
2015-Aug-27 02:33N 32°36' W 118°51'10 9.3
2015-Aug-27 01:26N 32°36' W 119°03'5 5.9
2015-Aug-27 00:33N 32°36' W 118°57'1312.5
2015-Aug-26 23:33N 32°36' W 118°42'1312.7
2015-Aug-26 22:33N 32°36' W 118°27'8 8.1
2015-Aug-26 21:33N 32°35' W 118°37'1313.3
2015-Aug-26 20:33N 32°36' W 118°52'1312.7
2015-Aug-26 19:33N 32°36' W 119°07'1010.1
2015-Aug-26 18:33N 32°36' W 118°55'10 9.5
2015-Aug-26 17:33N 32°36' W 118°44'9 9.2
2015-Aug-26 16:33N 32°36' W 118°33'9 9.3
2015-Aug-26 15:33N 32°36' W 118°22'1211.7
2015-Aug-26 14:33N 32°36' W 118°08'1111.0
2015-Aug-26 13:33N 32°36' W 117°55'9 9.4
2015-Aug-26 12:33N 32°36' W 117°44'2 2.3
2015-Aug-26 11:33N 32°36' W 117°41'8 8.4
2015-Aug-26 10:33N 32°36' W 117°51'9 8.6
2015-Aug-26 09:33N 32°36' W 118°02'9 9.0
2015-Aug-26 08:33N 32°36' W 118°12'4 3.9
2015-Aug-26 07:33N 32°36' W 118°08'9 9.1
2015-Aug-26 06:33N 32°36' W 117°57'1110.7
2015-Aug-26 05:33N 32°36' W 117°44'3 2.7
2015-Aug-26 04:33N 32°36' W 117°47'9 8.8
2015-Aug-26 03:33N 32°36' W 117°58'9 9.0
2015-Aug-26 02:33N 32°36' W 118°08'9 9.1
2015-Aug-26 01:33N 32°36' W 118°19'10 9.5
2015-Aug-26 00:31N 32°37' W 118°31'2 1.8
2015-Aug-25 23:33N 32°36' W 118°33'1312.6
2015-Aug-25 22:33N 32°36' W 118°18'1312.7
2015-Aug-25 21:33N 32°36' W 118°03'1211.8
2015-Aug-25 20:33N 32°36' W 117°49'1110.7
2015-Aug-25 19:33N 32°36' W 117°36'1111.3
2015-Aug-25 18:33N 32°36' W 117°23'9 9.0
2015-Aug-25 17:33N 32°41' W 117°14'1 0.7
2015-Aug-25 16:24N 32°42' W 117°14'0 0.0
2015-Aug-25 15:24N 32°42' W 117°14'0 0.0
2015-Aug-25 14:30N 32°42' W 117°14'0 0.0
2015-Aug-25 13:24N 32°42' W 117°14'0 0.0
2015-Aug-25 12:30N 32°42' W 117°14'0 0.0
2015-Aug-25 11:24N 32°42' W 117°14'0 0.0
2015-Aug-25 10:30N 32°42' W 117°14'0 0.0
2015-Aug-25 09:30N 32°42' W 117°14'0 0.0
2015-Aug-25 08:24N 32°42' W 117°14'0 0.0
2015-Aug-25 07:24N 32°42' W 117°14'0 0.0
2015-Aug-25 06:30N 32°42' W 117°14'0 0.0
2015-Aug-25 05:30N 32°42' W 117°14'0 0.0
2015-Aug-25 04:30N 32°42' W 117°14'0 0.0
2015-Aug-25 03:30N 32°42' W 117°14'0 0.0
2015-Aug-25 02:30N 32°42' W 117°14'0 0.0
2015-Aug-25 01:24N 32°42' W 117°14'0 0.0
2015-Aug-25 00:33N 32°42' W 117°14'0 0.0
2015-Aug-24 23:30N 32°42' W 117°14'0 0.0
2015-Aug-24 22:30N 32°42' W 117°14'0 0.0
2015-Aug-24 21:30N 32°42' W 117°14'2 2.3
2015-Aug-24 20:33N 32°43' W 117°12'1 1.0
2015-Aug-24 19:23N 32°42' W 117°11'0 0.0
2015-Aug-24 18:26N 32°42' W 117°11'0 0.0
2015-Aug-24 17:31N 32°42' W 117°11'0 0.0
2015-Aug-24 16:32N 32°42' W 117°11'0 0.0
2015-Aug-24 15:32N 32°42' W 117°11'0 0.0
2015-Aug-24 14:31N 32°42' W 117°11'0 0.0
2015-Aug-24 13:32N 32°42' W 117°11'0 0.0
2015-Aug-24 12:32N 32°42' W 117°11'0 0.0
2015-Aug-24 11:32N 32°42' W 117°11'0 0.0
2015-Aug-24 10:29N 32°42' W 117°11'0 0.0
2015-Aug-24 09:32N 32°42' W 117°11'0 0.0
2015-Aug-24 08:32N 32°42' W 117°11'0 0.0
2015-Aug-24 07:32N 32°42' W 117°11'0 0.0
2015-Aug-24 06:31N 32°42' W 117°11'0 0.0
2015-Aug-24 05:32N 32°42' W 117°11'0 0.0
2015-Aug-24 04:28N 32°42' W 117°11'0 0.0
2015-Aug-24 03:32N 32°42' W 117°11'0 0.0
2015-Aug-24 02:32N 32°42' W 117°11'0 0.0
2015-Aug-24 01:32N 32°42' W 117°11'0 0.0
2015-Aug-24 00:32N 32°42' W 117°11'0 0.0
2015-Aug-23 23:32N 32°42' W 117°11'0 0.0
2015-Aug-23 22:31N 32°42' W 117°11'0 0.1
2015-Aug-23 21:31N 32°42' W 117°11'0 0.1
2015-Aug-23 20:32N 32°42' W 117°11'0 0.0
2015-Aug-23 19:32N 32°42' W 117°11'0 0.0
2015-Aug-23 18:32N 32°42' W 117°11'0 0.0
2015-Aug-23 17:31N 32°42' W 117°11'0 0.0
2015-Aug-23 16:28N 32°42' W 117°11'0 0.0
2015-Aug-23 15:31N 32°42' W 117°11'0 0.0
2015-Aug-23 14:32N 32°42' W 117°11'0 0.0
2015-Aug-23 13:31N 32°42' W 117°11'0 0.0
2015-Aug-23 12:31N 32°42' W 117°11'0 0.0
2015-Aug-23 11:32N 32°42' W 117°11'0 0.0
2015-Aug-23 10:31N 32°42' W 117°11'0 0.0
2015-Aug-23 09:29N 32°42' W 117°11'0 0.0
2015-Aug-23 08:31N 32°42' W 117°11'0 0.0
2015-Aug-23 07:32N 32°42' W 117°11'0 0.0
2015-Aug-23 06:31N 32°42' W 117°11'0 0.0
2015-Aug-23 05:31N 32°42' W 117°11'0 0.0
2015-Aug-23 04:25N 32°42' W 117°11'0 0.1
2015-Aug-23 03:32N 32°42' W 117°11'0 0.0
2015-Aug-23 02:32N 32°42' W 117°11'0 0.0
2015-Aug-23 01:31N 32°42' W 117°11'0 0.0
2015-Aug-22 23:32N 32°42' W 117°11'0 0.0
2015-Aug-22 22:25N 32°42' W 117°11'0 0.0
2015-Aug-22 21:28N 32°42' W 117°11'0 0.0
2015-Aug-22 20:31N 32°42' W 117°11'0 0.0
2015-Aug-22 19:28N 32°42' W 117°11'0 0.0
2015-Aug-22 18:31N 32°42' W 117°11'0 0.0
2015-Aug-22 17:32N 32°42' W 117°11'0 0.0
2015-Aug-22 16:32N 32°42' W 117°11'0 0.0
2015-Aug-22 15:31N 32°42' W 117°11'0 0.0
2015-Aug-22 14:31N 32°42' W 117°11'0 0.0
2015-Aug-22 13:32N 32°42' W 117°11'0 0.0
2015-Aug-22 12:31N 32°42' W 117°11'0 0.0
2015-Aug-22 11:32N 32°42' W 117°11'0 0.0
2015-Aug-22 10:31N 32°42' W 117°11'0 0.0
2015-Aug-22 09:31N 32°42' W 117°11'0 0.0
2015-Aug-22 08:31N 32°42' W 117°11'0 0.0
2015-Aug-22 07:31N 32°42' W 117°11'0 0.0
2015-Aug-22 06:31N 32°42' W 117°11'0 0.0
2015-Aug-22 05:31N 32°42' W 117°11'0 0.0
2015-Aug-22 04:29N 32°42' W 117°11'0 0.0
2015-Aug-22 03:32N 32°42' W 117°11'0 0.0
2015-Aug-22 02:32N 32°42' W 117°11'0 0.0
2015-Aug-22 01:32N 32°42' W 117°11'0 0.0
2015-Aug-22 00:32N 32°42' W 117°11'5 4.9
2015-Aug-21 23:33N 32°38' W 117°13'1010.2
2015-Aug-21 22:34N 32°35' W 117°25'1413.9
2015-Aug-21 21:33N 32°36' W 117°42'  
Track history (hours):
 
Tides and Currents Weather Stations Pressure Air Temp Water Temp Dewpoint Dewpoint Depression Visibility Wind Speed Wind Dir Waves Ship Positions

Kaiser

Last reported at 2015-Aug-31 21:33 UTC. Time now 2015-Aug-31 21:51 UTC.
Position N 32°37' W 117°18'.

Length 207 m; draft 8.5 m.

Type: Tanker. MMSI: 303849000.

Date/timePositionNaut miles runAvg speedWind from/ knotsBaromVisibWave heightAir tempDewpointWater temp
2015-Aug-31 21:33N 32°37' W 117°18'4 3.7
2015-Aug-31 20:32N 32°33' W 117°18'1 0.5
2015-Aug-31 19:33N 32°34' W 117°18'7 6.8
2015-Aug-31 18:33N 32°34' W 117°26'10 9.7
2015-Aug-31 17:33N 32°35' W 117°15'8 8.5
2015-Aug-31 16:33N 32°43' W 117°12'1 0.9
2015-Aug-31 15:32N 32°42' W 117°11'0 0.0
2015-Aug-31 14:32N 32°42' W 117°11'0 0.0
2015-Aug-31 13:32N 32°42' W 117°11'0 0.0
2015-Aug-31 12:32N 32°42' W 117°11'0 0.0
2015-Aug-31 11:32N 32°42' W 117°11'0 0.0
2015-Aug-31 10:32N 32°42' W 117°11'0 0.0
2015-Aug-31 09:32N 32°42' W 117°11'0 0.0
2015-Aug-31 08:32N 32°42' W 117°11'0 0.0
2015-Aug-31 07:29N 32°42' W 117°11'0 0.0
2015-Aug-31 06:32N 32°42' W 117°11'0 0.0
2015-Aug-31 05:32N 32°42' W 117°11'0 0.0
2015-Aug-31 04:32N 32°42' W 117°11'0 0.0
2015-Aug-31 02:32N 32°42' W 117°11'0 0.0
2015-Aug-30 22:32N 32°42' W 117°11'0 0.0
2015-Aug-30 21:14N 32°42' W 117°11'0 0.0
2015-Aug-30 16:29N 32°42' W 117°11'0 0.0
2015-Aug-30 15:32N 32°42' W 117°11'0 0.0
2015-Aug-30 14:32N 32°42' W 117°11'0 0.0
2015-Aug-30 13:32N 32°42' W 117°11'0 0.0
2015-Aug-30 12:32N 32°42' W 117°11'0 0.0
2015-Aug-30 11:32N 32°42' W 117°11'0 0.0
2015-Aug-30 10:29N 32°42' W 117°11'0 0.0
2015-Aug-30 09:32N 32°42' W 117°11'0 0.0
2015-Aug-30 08:32N 32°42' W 117°11'0 0.0
2015-Aug-30 07:32N 32°42' W 117°11'0 0.0
2015-Aug-29 12:32N 32°42' W 117°11'2 0.1
2015-Aug-29 00:33N 32°43' W 117°13'1 1.1
2015-Aug-28 23:26N 32°42' W 117°14'0 0.0
2015-Aug-28 22:32N 32°42' W 117°14'0 0.0
2015-Aug-28 21:32N 32°42' W 117°14'0 0.0
2015-Aug-28 20:32N 32°42' W 117°14'0 0.0
2015-Aug-28 19:32N 32°42' W 117°14'0 0.0
2015-Aug-28 18:33N 32°42' W 117°14'0 0.0
2015-Aug-28 17:32N 32°42' W 117°14'0 0.0
2015-Aug-28 16:20N 32°42' W 117°14'0 0.0
2015-Aug-28 15:32N 32°42' W 117°14'0 0.0
2015-Aug-28 14:32N 32°42' W 117°14'0 0.0
2015-Aug-28 13:33N 32°42' W 117°14'0 0.0
2015-Aug-28 12:32N 32°42' W 117°14'0 0.0
2015-Aug-28 11:32N 32°42' W 117°14'0 0.0
2015-Aug-28 10:32N 32°42' W 117°14'0 0.0
2015-Aug-28 09:32N 32°42' W 117°14'0 0.0
2015-Aug-28 08:26N 32°42' W 117°14'0 0.0
2015-Aug-28 07:17N 32°42' W 117°14'0 0.0
2015-Aug-28 06:15N 32°42' W 117°14'0 0.0
2015-Aug-28 05:32N 32°42' W 117°14'0 0.0
2015-Aug-28 04:32N 32°42' W 117°14'0 0.0
2015-Aug-28 03:33N 32°42' W 117°14'0 0.0
2015-Aug-28 02:32N 32°42' W 117°14'0 0.0
2015-Aug-28 01:32N 32°42' W 117°14'0 0.0
2015-Aug-28 00:33N 32°42' W 117°14'0 0.0
2015-Aug-27 23:33N 32°42' W 117°14'6 6.1
2015-Aug-27 22:33N 32°36' W 117°13'10 9.8
2015-Aug-27 21:33N 32°32' W 117°23'6 6.3
2015-Aug-27 20:34N 32°30' W 117°31'7 7.3
2015-Aug-27 19:34N 32°34' W 117°37'9 9.1
2015-Aug-27 18:33N 32°36' W 117°48'1212.0
2015-Aug-27 17:33N 32°36' W 118°02'1515.5
2015-Aug-27 16:33N 32°36' W 118°20'1413.4
2015-Aug-27 15:32N 32°36' W 118°37'1313.3
2015-Aug-27 14:33N 32°37' W 118°52'4 3.3
2015-Aug-27 13:29N 32°36' W 118°56'8 8.5
2015-Aug-27 12:33N 32°36' W 118°47'9 8.8
2015-Aug-27 11:33N 32°37' W 118°37'1 0.6
2015-Aug-27 10:33N 32°36' W 118°36'9 9.0
2015-Aug-27 09:33N 32°36' W 118°47'9 8.9
2015-Aug-27 08:33N 32°36' W 118°57'3 2.8
2015-Aug-27 07:33N 32°36' W 118°54'9 9.3
2015-Aug-27 06:33N 32°36' W 118°43'9 8.9
2015-Aug-27 05:33N 32°36' W 118°32'3 3.2
2015-Aug-27 04:33N 32°36' W 118°29'9 9.4
2015-Aug-27 03:33N 32°36' W 118°40'9 9.3
2015-Aug-27 02:33N 32°36' W 118°51'10 9.3
2015-Aug-27 01:26N 32°36' W 119°03'5 5.9
2015-Aug-27 00:33N 32°36' W 118°57'1312.5
2015-Aug-26 23:33N 32°36' W 118°42'1312.7
2015-Aug-26 22:33N 32°36' W 118°27'8 8.1
2015-Aug-26 21:33N 32°35' W 118°37'1313.3
2015-Aug-26 20:33N 32°36' W 118°52'1312.7
2015-Aug-26 19:33N 32°36' W 119°07'1010.1
2015-Aug-26 18:33N 32°36' W 118°55'10 9.5
2015-Aug-26 17:33N 32°36' W 118°44'9 9.2
2015-Aug-26 16:33N 32°36' W 118°33'9 9.3
2015-Aug-26 15:33N 32°36' W 118°22'1211.7
2015-Aug-26 14:33N 32°36' W 118°08'1111.0
2015-Aug-26 13:33N 32°36' W 117°55'9 9.4
2015-Aug-26 12:33N 32°36' W 117°44'2 2.3
2015-Aug-26 11:33N 32°36' W 117°41'8 8.4
2015-Aug-26 10:33N 32°36' W 117°51'9 8.6
2015-Aug-26 09:33N 32°36' W 118°02'9 9.0
2015-Aug-26 08:33N 32°36' W 118°12'4 3.9
2015-Aug-26 07:33N 32°36' W 118°08'9 9.1
2015-Aug-26 06:33N 32°36' W 117°57'1110.7
2015-Aug-26 05:33N 32°36' W 117°44'3 2.7
2015-Aug-26 04:33N 32°36' W 117°47'9 8.8
2015-Aug-26 03:33N 32°36' W 117°58'9 9.0
2015-Aug-26 02:33N 32°36' W 118°08'9 9.1
2015-Aug-26 01:33N 32°36' W 118°19'10 9.5
2015-Aug-26 00:31N 32°37' W 118°31'2 1.8
2015-Aug-25 23:33N 32°36' W 118°33'1312.6
2015-Aug-25 22:33N 32°36' W 118°18'1312.7
2015-Aug-25 21:33N 32°36' W 118°03'1211.8
2015-Aug-25 20:33N 32°36' W 117°49'1110.7
2015-Aug-25 19:33N 32°36' W 117°36'1111.3
2015-Aug-25 18:33N 32°36' W 117°23'9 9.0
2015-Aug-25 17:33N 32°41' W 117°14'1 0.7
2015-Aug-25 16:24N 32°42' W 117°14'0 0.0
2015-Aug-25 15:24N 32°42' W 117°14'0 0.0
2015-Aug-25 14:30N 32°42' W 117°14'0 0.0
2015-Aug-25 13:24N 32°42' W 117°14'0 0.0
2015-Aug-25 12:30N 32°42' W 117°14'0 0.0
2015-Aug-25 11:24N 32°42' W 117°14'0 0.0
2015-Aug-25 10:30N 32°42' W 117°14'0 0.0
2015-Aug-25 09:30N 32°42' W 117°14'0 0.0
2015-Aug-25 08:24N 32°42' W 117°14'0 0.0
2015-Aug-25 07:24N 32°42' W 117°14'0 0.0
2015-Aug-25 06:30N 32°42' W 117°14'0 0.0
2015-Aug-25 05:30N 32°42' W 117°14'0 0.0
2015-Aug-25 04:30N 32°42' W 117°14'0 0.0
2015-Aug-25 03:30N 32°42' W 117°14'0 0.0
2015-Aug-25 02:30N 32°42' W 117°14'0 0.0
2015-Aug-25 01:24N 32°42' W 117°14'0 0.0
2015-Aug-25 00:33N 32°42' W 117°14'0 0.0
2015-Aug-24 23:30N 32°42' W 117°14'0 0.0
2015-Aug-24 22:30N 32°42' W 117°14'0 0.0
2015-Aug-24 21:30N 32°42' W 117°14'2 2.3
2015-Aug-24 20:33N 32°43' W 117°12'1 1.0
2015-Aug-24 19:23N 32°42' W 117°11'0 0.0
2015-Aug-24 18:26N 32°42' W 117°11'0 0.0
2015-Aug-24 17:31N 32°42' W 117°11'0 0.0
2015-Aug-24 16:32N 32°42' W 117°11'0 0.0
2015-Aug-24 15:32N 32°42' W 117°11'0 0.0
2015-Aug-24 14:31N 32°42' W 117°11'0 0.0
2015-Aug-24 13:32N 32°42' W 117°11'0 0.0
2015-Aug-24 12:32N 32°42' W 117°11'0 0.0
2015-Aug-24 11:32N 32°42' W 117°11'0 0.0
2015-Aug-24 10:29N 32°42' W 117°11'0 0.0
2015-Aug-24 09:32N 32°42' W 117°11'0 0.0
2015-Aug-24 08:32N 32°42' W 117°11'0 0.0
2015-Aug-24 07:32N 32°42' W 117°11'0 0.0
2015-Aug-24 06:31N 32°42' W 117°11'0 0.0
2015-Aug-24 05:32N 32°42' W 117°11'0 0.0
2015-Aug-24 04:28N 32°42' W 117°11'0 0.0
2015-Aug-24 03:32N 32°42' W 117°11'0 0.0
2015-Aug-24 02:32N 32°42' W 117°11'0 0.0
2015-Aug-24 01:32N 32°42' W 117°11'0 0.0
2015-Aug-24 00:32N 32°42' W 117°11'0 0.0
2015-Aug-23 23:32N 32°42' W 117°11'0 0.0
2015-Aug-23 22:31N 32°42' W 117°11'0 0.1
2015-Aug-23 21:31N 32°42' W 117°11'0 0.1
2015-Aug-23 20:32N 32°42' W 117°11'0 0.0
2015-Aug-23 19:32N 32°42' W 117°11'0 0.0
2015-Aug-23 18:32N 32°42' W 117°11'0 0.0
2015-Aug-23 17:31N 32°42' W 117°11'0 0.0
2015-Aug-23 16:28N 32°42' W 117°11'0 0.0
2015-Aug-23 15:31N 32°42' W 117°11'0 0.0
2015-Aug-23 14:32N 32°42' W 117°11'0 0.0
2015-Aug-23 13:31N 32°42' W 117°11'0 0.0
2015-Aug-23 12:31N 32°42' W 117°11'0 0.0
2015-Aug-23 11:32N 32°42' W 117°11'0 0.0
2015-Aug-23 10:31N 32°42' W 117°11'0 0.0
2015-Aug-23 09:29N 32°42' W 117°11'0 0.0
2015-Aug-23 08:31N 32°42' W 117°11'0 0.0
2015-Aug-23 07:32N 32°42' W 117°11'0 0.0
2015-Aug-23 06:31N 32°42' W 117°11'0 0.0
2015-Aug-23 05:31N 32°42' W 117°11'0 0.0
2015-Aug-23 04:25N 32°42' W 117°11'0 0.1
2015-Aug-23 03:32N 32°42' W 117°11'0 0.0
2015-Aug-23 02:32N 32°42' W 117°11'0 0.0
2015-Aug-23 01:31N 32°42' W 117°11'0 0.0
2015-Aug-22 23:32N 32°42' W 117°11'0 0.0
2015-Aug-22 22:25N 32°42' W 117°11'0 0.0
2015-Aug-22 21:28N 32°42' W 117°11'0 0.0
2015-Aug-22 20:31N 32°42' W 117°11'0 0.0
2015-Aug-22 19:28N 32°42' W 117°11'0 0.0
2015-Aug-22 18:31N 32°42' W 117°11'0 0.0
2015-Aug-22 17:32N 32°42' W 117°11'0 0.0
2015-Aug-22 16:32N 32°42' W 117°11'0 0.0
2015-Aug-22 15:31N 32°42' W 117°11'0 0.0
2015-Aug-22 14:31N 32°42' W 117°11'0 0.0
2015-Aug-22 13:32N 32°42' W 117°11'0 0.0
2015-Aug-22 12:31N 32°42' W 117°11'0 0.0
2015-Aug-22 11:32N 32°42' W 117°11'0 0.0
2015-Aug-22 10:31N 32°42' W 117°11'0 0.0
2015-Aug-22 09:31N 32°42' W 117°11'0 0.0
2015-Aug-22 08:31N 32°42' W 117°11'0 0.0
2015-Aug-22 07:31N 32°42' W 117°11'0 0.0
2015-Aug-22 06:31N 32°42' W 117°11'0 0.0
2015-Aug-22 05:31N 32°42' W 117°11'0 0.0
2015-Aug-22 04:29N 32°42' W 117°11'0 0.0
2015-Aug-22 03:32N 32°42' W 117°11'0 0.0
2015-Aug-22 02:32N 32°42' W 117°11'0 0.0
2015-Aug-22 01:32N 32°42' W 117°11'0 0.0
2015-Aug-22 00:32N 32°42' W 117°11'5 4.9
2015-Aug-21 23:33N 32°38' W 117°13'1010.2
2015-Aug-21 22:34N 32°35' W 117°25'1413.9
2015-Aug-21 21:33N 32°36' W 117°42'  

Dump ship's entire track history